Time;durP1;ratioP1;P1;durP2;ratioP2;P2;SDS_P1;SDS_P2;PMS_P1;PMS_P2;Temp;Humidity;BMP_temperature;BMP_pressure;BME280_temperature;BME280_humidity;BME280_pressure;Samples;Min_cycle;Max_cycle;Signal;HPM_P1;HPM_P2
2022/10/14 00:01:18;;;;;;;27.27;23.20;;;;;;;12.37;100.00;101458.06;5030935;28;20033;-55
2022/10/14 00:03:44;;;;;;;25.33;21.70;;;;;;;12.35;100.00;101460.00;5028798;28;20045;-56
2022/10/14 00:06:12;;;;;;;24.67;20.73;;;;;;;12.37;100.00;101468.72;5032533;28;20033;-56
2022/10/14 00:08:37;;;;;;;29.27;22.10;;;;;;;12.39;100.00;101466.81;5032309;28;20053;-54
2022/10/14 00:11:08;;;;;;;25.00;20.90;;;;;;;12.37;100.00;101471.38;5032605;28;20032;-54
2022/10/14 00:13:34;;;;;;;24.05;21.08;;;;;;;12.38;100.00;101468.63;5031917;28;20072;-54
2022/10/14 00:16:00;;;;;;;27.83;21.80;;;;;;;12.37;100.00;101469.59;5032626;28;20440;-55
2022/10/14 00:18:25;;;;;;;22.75;20.25;;;;;;;12.40;100.00;101471.16;5032172;28;20406;-54
2022/10/14 00:20:59;;;;;;;25.58;20.60;;;;;;;12.40;100.00;101466.69;5030968;28;20040;-56
2022/10/14 00:23:25;;;;;;;26.15;20.35;;;;;;;12.40;100.00;101472.00;5032395;28;20034;-56
2022/10/14 00:25:51;;;;;;;25.77;20.00;;;;;;;12.41;100.00;101467.56;5031993;28;20023;-55
2022/10/14 00:28:16;;;;;;;24.38;20.17;;;;;;;12.40;100.00;101460.50;5032345;28;20522;-55
2022/10/14 00:30:51;;;;;;;23.80;21.02;;;;;;;12.42;100.00;101463.91;5027998;28;20510;-55
2022/10/14 00:33:16;;;;;;;24.38;20.65;;;;;;;12.42;100.00;101457.72;5032478;28;20095;-54
2022/10/14 00:35:41;;;;;;;25.30;21.43;;;;;;;12.42;100.00;101457.72;5024064;28;20026;-53
2022/10/14 00:38:07;;;;;;;29.88;21.75;;;;;;;12.42;100.00;101450.59;5032044;28;20276;-56
2022/10/14 00:40:32;;;;;;;24.58;21.55;;;;;;;12.42;100.00;101445.25;5025423;28;20112;-55
2022/10/14 00:42:57;;;;;;;25.85;22.23;;;;;;;12.42;100.00;101441.75;5031511;28;20028;-55
2022/10/14 00:45:23;;;;;;;26.02;21.67;;;;;;;12.40;100.00;101439.19;5028855;28;20095;-55
2022/10/14 00:47:51;;;;;;;28.20;22.85;;;;;;;12.36;100.00;101441.25;5035035;28;20025;-56
2022/10/14 00:50:18;;;;;;;30.02;23.17;;;;;;;12.37;100.00;101434.97;5066053;22;20087;-50
2022/10/14 00:52:44;;;;;;;28.30;23.40;;;;;;;12.35;100.00;101426.22;5055853;28;20017;-49
2022/10/14 00:55:13;;;;;;;28.35;23.40;;;;;;;12.35;100.00;101434.22;5047889;28;20514;-51
2022/10/14 00:57:39;;;;;;;34.80;24.65;;;;;;;12.34;100.00;101429.00;5055486;28;20482;-50
2022/10/14 01:00:11;;;;;;;27.90;24.35;;;;;;;12.33;100.00;101428.16;5056358;28;20029;-49
2022/10/14 01:02:36;;;;;;;29.83;25.13;;;;;;;12.31;100.00;101419.44;5043522;28;20041;-50
2022/10/14 01:05:04;;;;;;;28.90;23.85;;;;;;;12.28;100.00;101414.31;5055998;28;20033;-50
2022/10/14 01:07:44;;;;;;;30.80;24.42;;;;;;;12.32;100.00;101420.28;5054013;28;20028;-50
2022/10/14 01:10:25;;;;;;;31.55;25.17;;;;;;;12.31;100.00;101414.09;5055674;28;20470;-49
2022/10/14 01:13:03;;;;;;;28.75;24.08;;;;;;;12.30;100.00;101420.38;5055653;28;20063;-50
2022/10/14 01:15:41;;;;;;;28.48;24.35;;;;;;;12.29;100.00;101413.38;5055085;28;20071;-51
2022/10/14 01:18:46;;;;;;;30.10;25.27;;;;;;;12.32;100.00;101414.94;5055472;28;20501;-51
2022/10/14 01:21:29;;;;;;;29.05;25.92;;;;;;;12.29;100.00;101409.84;5055635;28;20025;-50
2022/10/14 01:24:06;;;;;;;33.08;25.10;;;;;;;12.28;100.00;101400.19;5059093;28;20114;-49
2022/10/14 01:27:09;;;;;;;31.95;25.38;;;;;;;12.29;100.00;101388.53;5055435;28;20029;-49
2022/10/14 01:29:43;;;;;;;30.13;24.38;;;;;;;12.25;100.00;101384.41;5049935;28;20086;-49
2022/10/14 01:32:14;;;;;;;30.63;25.48;;;;;;;12.23;100.00;101378.38;5054971;28;20099;-50
2022/10/14 01:34:48;;;;;;;33.38;27.25;;;;;;;12.21;100.00;101381.13;5055456;28;20025;-49
2022/10/14 01:37:19;;;;;;;39.60;26.85;;;;;;;12.21;100.00;101375.81;5055292;28;20055;-49
2022/10/14 01:39:49;;;;;;;35.83;25.35;;;;;;;12.19;100.00;101375.06;5055021;28;20482;-49
2022/10/14 01:42:24;;;;;;;35.10;27.50;;;;;;;12.18;100.00;101366.22;5055336;28;20067;-49
2022/10/14 01:44:56;;;;;;;33.20;26.52;;;;;;;12.17;100.00;101359.22;5054900;28;20390;-49
2022/10/14 01:47:26;;;;;;;36.30;27.60;;;;;;;12.15;100.00;101366.44;5054828;28;20605;-51
2022/10/14 01:49:57;;;;;;;33.40;27.33;;;;;;;12.12;100.00;101356.03;5054525;28;20127;-49
2022/10/14 01:52:29;;;;;;;34.80;27.92;;;;;;;12.16;100.00;101359.34;5054543;28;20127;-51
2022/10/14 01:54:58;;;;;;;31.50;26.55;;;;;;;12.17;100.00;101361.00;5050288;28;20080;-50
2022/10/14 01:57:26;;;;;;;;;;;;;;;12.24;100.00;101367.59;5052533;28;20017;-49
2022/10/14 01:59:54;;;;;;;36.38;28.00;;;;;;;12.20;100.00;101366.13;5054526;28;19912;-49
2022/10/14 02:02:19;;;;;;;35.78;28.10;;;;;;;12.18;100.00;101358.25;5054457;28;20462;-50
2022/10/14 02:04:45;;;;;;;38.22;27.73;;;;;;;12.17;100.00;101358.34;5054791;28;20027;-49
2022/10/14 02:07:24;;;;;;;35.65;26.55;;;;;;;12.17;100.00;101361.00;5053568;28;20037;-52
2022/10/14 02:10:08;;;;;;;37.55;27.15;;;;;;;12.18;100.00;101360.06;5051831;28;20040;-50
2022/10/14 02:12:42;;;;;;;36.15;27.65;;;;;;;12.17;100.00;101353.03;5044039;28;20056;-50
2022/10/14 02:15:31;;;;;;;40.20;27.52;;;;;;;12.16;100.00;101348.69;5053718;28;20119;-48
2022/10/14 02:18:04;;;;;;;33.78;27.08;;;;;;;12.16;100.00;101351.34;5048268;28;20099;-50
2022/10/14 02:20:35;;;;;;;35.05;27.45;;;;;;;12.16;100.00;101343.34;5041851;28;20029;-51
2022/10/14 02:23:14;;;;;;;37.33;26.50;;;;;;;12.18;100.00;101350.25;5054179;28;20024;-49
2022/10/14 02:25:44;;;;;;;36.28;27.05;;;;;;;12.19;100.00;101351.09;5054442;28;20068;-50
2022/10/14 02:28:14;;;;;;;33.85;25.38;;;;;;;12.18;100.00;101347.59;5042443;28;20086;-50
2022/10/14 02:30:48;;;;;;;35.72;27.15;;;;;;;12.21;100.00;101347.34;5054504;28;20028;-49
2022/10/14 02:33:14;;;;;;;35.88;26.23;;;;;;;12.20;100.00;101339.47;5054009;28;20028;-48
2022/10/14 02:35:40;;;;;;;37.88;26.25;;;;;;;12.21;100.00;101344.69;5052584;28;20032;-50
2022/10/14 02:38:07;;;;;;;37.25;28.17;;;;;;;12.23;100.00;101347.25;5053787;28;20108;-50
2022/10/14 02:40:38;;;;;;;39.15;26.83;;;;;;;12.21;100.00;101339.38;5051634;28;20391;-52
2022/10/14 02:43:06;;;;;;;36.60;26.70;;;;;;;12.24;100.00;101348.09;5052534;28;20028;-50
2022/10/14 02:45:33;;;;;;;44.55;28.08;;;;;;;12.25;100.00;101344.47;5044814;28;20029;-51
2022/10/14 02:47:58;;;;;;;38.35;26.73;;;;;;;12.23;100.00;101344.59;5053195;28;20024;-49
2022/10/14 02:50:23;;;;;;;39.08;26.42;;;;;;;12.24;100.00;101338.31;5053482;28;20503;-49
2022/10/14 02:52:48;;;;;;;39.08;26.98;;;;;;;12.24;100.00;101332.97;5051837;28;20546;-50
2022/10/14 02:55:14;;;;;;;41.70;27.05;;;;;;;12.27;100.00;101329.22;5053685;28;20025;-50
2022/10/14 02:57:39;;;;;;;44.25;26.77;;;;;;;12.27;100.00;101327.38;5052869;28;20021;-51
2022/10/14 03:00:05;;;;;;;42.40;27.52;;;;;;;12.25;100.00;101321.34;5045901;28;20041;-52
2022/10/14 03:02:30;;;;;;;43.78;25.30;;;;;;;12.27;100.00;101318.56;5050879;28;20171;-51
2022/10/14 03:04:57;;;;;;;38.80;25.13;;;;;;;12.28;100.00;101309.63;5045223;28;20475;-50
2022/10/14 03:07:23;;;;;;;37.88;24.48;;;;;;;12.27;100.00;101313.22;5053709;28;20025;-51
2022/10/14 03:09:48;;;;;;;40.08;24.73;;;;;;;12.27;100.00;101314.06;5050587;28;20036;-54
2022/10/14 03:12:14;;;;;;;40.97;24.60;;;;;;;12.28;100.00;101306.94;5052152;28;20025;-50
2022/10/14 03:14:40;;;;;;;40.15;24.75;;;;;;;12.28;100.00;101304.28;5050893;28;20060;-51
2022/10/14 03:17:05;;;;;;;38.90;25.77;;;;;;;12.29;100.00;101305.97;5052360;28;20482;-55
2022/10/14 03:19:30;;;;;;;42.28;24.23;;;;;;;12.31;100.00;101298.72;5053186;28;20031;-53
2022/10/14 03:21:56;;;;;;;39.70;25.97;;;;;;;12.33;100.00;101302.13;5052983;28;20028;-53
2022/10/14 03:24:21;;;;;;;36.60;24.48;;;;;;;12.31;100.00;101299.56;5048204;28;20291;-51
2022/10/14 03:26:46;;;;;;;38.28;25.05;;;;;;;12.32;100.00;101293.28;5053032;28;20363;-51
2022/10/14 03:29:11;;;;;;;40.03;25.20;;;;;;;12.34;100.00;101295.81;5053203;28;20116;-50
2022/10/14 03:31:37;;;;;;;37.47;23.70;;;;;;;12.34;100.00;101294.00;5050519;28;20021;-53
2022/10/14 03:34:02;;;;;;;35.97;22.80;;;;;;;12.34;100.00;101294.00;5051781;28;20043;-52
2022/10/14 03:36:27;;;;;;;36.03;23.55;;;;;;;12.33;100.00;101283.47;5053040;28;20051;-52
2022/10/14 03:38:53;;;;;;;34.03;22.58;;;;;;;12.33;100.00;101284.31;5053143;28;20067;-51
2022/10/14 03:41:18;;;;;;;36.78;23.45;;;;;;;12.33;100.00;101283.47;5045240;28;20025;-51
2022/10/14 03:43:43;;;;;;;34.58;22.83;;;;;;;12.32;100.00;101282.63;5053075;28;20075;-51
2022/10/14 03:46:09;;;;;;;32.45;23.05;;;;;;;12.34;100.00;101278.03;5052628;28;20053;-51
2022/10/14 03:48:34;;;;;;;34.78;23.23;;;;;;;12.35;100.00;101278.88;5045221;28;20037;-49
2022/10/14 03:50:59;;;;;;;37.05;23.80;;;;;;;12.35;100.00;101268.22;5050269;28;20025;-51
2022/10/14 03:53:25;;;;;;;32.92;21.92;;;;;;;12.36;100.00;101268.09;5052824;28;20037;-53
2022/10/14 03:55:50;;;;;;;32.83;22.17;;;;;;;12.36;100.00;101272.59;5051883;28;20036;-51
2022/10/14 03:58:15;;;;;;;31.70;22.25;;;;;;;12.37;100.00;101269.81;5052864;28;20036;-51
2022/10/14 04:00:40;;;;;;;30.75;22.40;;;;;;;12.38;100.00;101270.66;5052512;28;20032;-50
2022/10/14 04:03:06;;;;;;;29.13;20.30;;;;;;;12.37;100.00;101269.81;5042786;28;20116;-51
2022/10/14 04:05:33;;;;;;;26.80;20.10;;;;;;;12.38;100.00;101268.81;5050993;28;20032;-49
2022/10/14 04:08:00;;;;;;;27.67;20.58;;;;;;;12.39;100.00;101261.69;5052749;28;20021;-53
2022/10/14 04:10:25;;;;;;;26.17;19.55;;;;;;;12.39;100.00;101264.38;5051106;28;20017;-50
2022/10/14 04:12:52;;;;;;;25.65;19.88;;;;;;;12.37;100.00;101255.63;5052053;28;20075;-50
2022/10/14 04:15:17;;;;;;;24.60;19.45;;;;;;;12.40;100.00;101261.56;5052484;28;20044;-51
2022/10/14 04:17:43;;;;;;;25.88;19.02;;;;;;;12.42;100.00;101257.94;5050587;28;20067;-51
2022/10/14 04:20:08;;;;;;;24.67;19.30;;;;;;;12.40;100.00;101260.72;5051166;28;20079;-53
2022/10/14 04:22:33;;;;;;;24.42;19.42;;;;;;;12.42;100.00;101255.25;5052754;28;20036;-52
2022/10/14 04:24:59;;;;;;;24.33;19.00;;;;;;;12.42;100.00;101255.25;5052651;28;20021;-51
2022/10/14 04:27:24;;;;;;;23.13;18.13;;;;;;;12.40;100.00;101253.56;5048755;28;20450;-52
2022/10/14 04:29:50;;;;;;;25.15;18.45;;;;;;;12.41;100.00;101251.75;5052210;28;20029;-50
2022/10/14 04:32:16;;;;;;;22.90;17.80;;;;;;;12.43;100.00;101249.81;5051230;28;20117;-50
2022/10/14 04:34:41;;;;;;;22.45;17.55;;;;;;;12.42;100.00;101245.44;5047713;28;20462;-50
2022/10/14 04:37:06;;;;;;;23.98;17.25;;;;;;;12.42;100.00;101242.78;5052464;28;20501;-53
2022/10/14 04:39:32;;;;;;;22.35;17.20;;;;;;;12.43;100.00;101239.16;5050655;28;20474;-51
2022/10/14 04:41:57;;;;;;;22.73;16.67;;;;;;;12.44;100.00;101242.66;5052518;28;20501;-49
2022/10/14 04:44:23;;;;;;;19.60;16.13;;;;;;;12.44;100.00;101232.00;5052102;28;20033;-54
2022/10/14 04:46:48;;;;;;;19.65;15.80;;;;;;;12.43;100.00;101233.84;5047962;28;20394;-50
2022/10/14 04:49:15;;;;;;;21.80;16.53;;;;;;;12.43;100.00;101235.66;5051238;28;20056;-54
2022/10/14 04:51:40;;;;;;;24.23;16.08;;;;;;;12.42;100.00;101231.28;5052076;28;20287;-54
2022/10/14 04:54:06;;;;;;;23.55;17.35;;;;;;;12.45;100.00;101236.38;5051330;28;20025;-52
2022/10/14 04:56:31;;;;;;;21.20;16.25;;;;;;;12.45;100.00;101223.06;5052266;28;20494;-50
2022/10/14 04:58:56;;;;;;;21.42;16.02;;;;;;;12.45;100.00;101226.56;5051786;28;20020;-50
2022/10/14 05:01:22;;;;;;;21.52;16.27;;;;;;;12.44;100.00;101227.56;5049999;28;20056;-50
2022/10/14 05:03:47;;;;;;;19.88;15.07;;;;;;;12.46;100.00;101222.09;5051855;28;20497;-50
2022/10/14 05:06:13;;;;;;;22.23;16.08;;;;;;;12.45;100.00;101229.22;5051835;28;20025;-51
2022/10/14 05:08:38;;;;;;;21.42;14.95;;;;;;;12.44;100.00;101216.03;5052028;28;20020;-53
2022/10/14 05:11:04;;;;;;;19.48;15.30;;;;;;;12.45;100.00;101213.25;5047263;28;20064;-53
2022/10/14 05:13:29;;;;;;;20.55;15.38;;;;;;;12.47;100.00;101211.31;5051471;28;20025;-54
2022/10/14 05:15:55;;;;;;;20.58;14.85;;;;;;;12.47;100.00;101205.97;5041138;28;20066;-51
2022/10/14 05:18:20;;;;;;;20.02;15.15;;;;;;;12.47;100.00;101205.97;5049939;28;20120;-52
2022/10/14 05:20:45;;;;;;;17.60;14.23;;;;;;;12.48;100.00;101198.84;5041227;28;20478;-53
2022/10/14 05:23:11;;;;;;;18.05;14.63;;;;;;;12.46;100.00;101201.63;5043027;28;20045;-50
2022/10/14 05:25:36;;;;;;;17.20;14.13;;;;;;;12.48;100.00;101204.19;5051910;28;20025;-51
2022/10/14 05:28:02;;;;;;;18.58;14.18;;;;;;;12.48;100.00;101201.50;5051314;28;20044;-51
2022/10/14 05:30:27;;;;;;;15.93;13.77;;;;;;;12.47;100.00;101195.31;5054283;28;20025;-53
2022/10/14 05:32:53;;;;;;;18.92;14.15;;;;;;;12.46;100.00;101180.31;5055059;28;20025;-54
2022/10/14 05:35:18;;;;;;;18.98;14.23;;;;;;;12.48;100.00;101181.03;5055165;28;20021;-53
2022/10/14 05:37:43;;;;;;;16.60;13.55;;;;;;;12.49;100.00;101176.53;5053275;28;20025;-51
2022/10/14 05:40:09;;;;;;;18.10;13.30;;;;;;;12.49;100.00;101182.75;5052177;28;20043;-50
2022/10/14 05:42:34;;;;;;;14.63;13.07;;;;;;;12.51;100.00;101174.63;5053781;28;20021;-51
2022/10/14 05:45:00;;;;;;;14.80;12.55;;;;;;;12.51;100.00;101171.97;5054138;28;20139;-52
2022/10/14 05:47:25;;;;;;;15.30;11.88;;;;;;;12.51;100.00;101169.31;5053603;28;20405;-54
2022/10/14 05:49:50;;;;;;;14.57;12.38;;;;;;;12.51;100.00;101169.31;5051555;28;20045;-54
2022/10/14 05:52:16;;;;;;;14.68;11.45;;;;;;;12.51;100.00;101161.31;5047646;28;20040;-53
2022/10/14 05:54:41;;;;;;;15.68;11.98;;;;;;;12.52;100.00;101163.00;5052895;28;20424;-54
2022/10/14 05:57:06;;;;;;;14.23;11.25;;;;;;;12.51;100.00;101164.81;5053127;28;20086;-53
2022/10/14 05:59:33;;;;;;;14.50;11.52;;;;;;;12.51;100.00;101161.31;5050493;28;20017;-54
2022/10/14 06:01:59;;;;;;;17.42;11.88;;;;;;;12.53;100.00;101164.69;5051841;28;20036;-54
2022/10/14 06:04:24;;;;;;;14.95;10.80;;;;;;;12.52;100.00;101161.19;5052646;28;20031;-51
2022/10/14 06:06:50;;;;;;;15.38;11.68;;;;;;;12.51;100.00;101158.66;5053514;28;20402;-54
2022/10/14 06:09:16;;;;;;;14.18;11.27;;;;;;;12.51;100.00;101154.16;5050493;28;20063;-52
2022/10/14 06:11:41;;;;;;;13.48;11.07;;;;;;;12.54;100.00;101161.03;5051780;28;20029;-52
2022/10/14 06:14:07;;;;;;;13.27;10.93;;;;;;;12.54;100.00;101156.59;5055202;28;20086;-53
2022/10/14 06:16:32;;;;;;;13.60;11.10;;;;;;;12.54;100.00;101151.25;5051275;28;20040;-52
2022/10/14 06:18:57;;;;;;;13.82;10.75;;;;;;;12.55;100.00;101146.75;5051814;28;20051;-54
2022/10/14 06:21:23;;;;;;;12.55;10.88;;;;;;;12.56;100.00;101140.47;5050380;28;20079;-50
2022/10/14 06:23:48;;;;;;;14.57;11.05;;;;;;;12.56;100.00;101143.13;5053167;28;20056;-52
2022/10/14 06:26:13;;;;;;;14.23;11.10;;;;;;;12.56;100.00;101143.13;5050288;28;20362;-54
2022/10/14 06:28:39;;;;;;;14.50;10.88;;;;;;;12.58;100.00;101151.84;5051811;28;20025;-53
2022/10/14 06:31:05;;;;;;;12.38;10.10;;;;;;;12.58;100.00;101143.84;5053049;28;20099;-54
2022/10/14 06:33:30;;;;;;;12.10;10.85;;;;;;;12.59;100.00;101140.22;5052759;28;20040;-53
2022/10/14 06:35:56;;;;;;;13.82;11.25;;;;;;;12.59;100.00;101146.41;5051104;28;20474;-53
2022/10/14 06:38:21;;;;;;;14.25;10.90;;;;;;;12.61;100.00;101143.63;5051825;28;20430;-54
2022/10/14 06:40:50;;;;;;;13.95;10.93;;;;;;;12.61;100.00;101140.94;5053049;28;20421;-54
2022/10/14 06:43:15;;;;;;;;;;;;;;;12.66;100.00;101129.94;5037620;28;20036;-50
2022/10/14 06:45:41;;;;;;;15.30;10.60;;;;;;;12.64;100.00;101137.16;5051853;28;20415;-54
2022/10/14 06:48:06;;;;;;;15.52;11.07;;;;;;;12.64;100.00;101131.84;5050893;28;20733;-53
2022/10/14 06:50:32;;;;;;;13.45;10.45;;;;;;;12.64;100.00;101131.84;5052868;28;20041;-54
2022/10/14 06:52:57;;;;;;;14.98;11.30;;;;;;;12.64;100.00;101127.38;5053501;28;20029;-53
2022/10/14 06:55:22;;;;;;;13.68;10.90;;;;;;;12.67;100.00;101134.25;5051689;28;20049;-53
2022/10/14 06:57:47;;;;;;;13.73;10.80;;;;;;;12.67;100.00;101134.25;5049781;28;20505;-55
2022/10/14 07:00:13;;;;;;;12.88;10.68;;;;;;;12.68;100.00;101131.47;5054377;28;20163;-54
2022/10/14 07:02:38;;;;;;;14.90;11.00;;;;;;;12.69;100.00;101127.84;5049009;28;20033;-55
2022/10/14 07:05:04;;;;;;;12.60;10.63;;;;;;;12.69;100.00;101116.31;5051215;28;20029;-53
2022/10/14 07:07:30;;;;;;;13.07;10.65;;;;;;;12.70;100.00;101113.53;5051911;28;20422;-55
2022/10/14 07:09:57;;;;;;;15.77;10.60;;;;;;;12.71;100.00;101111.75;5045316;28;20134;-53
2022/10/14 07:12:22;;;;;;;14.80;10.68;;;;;;;12.73;100.00;101115.13;5062747;28;20028;-53
2022/10/14 07:14:48;;;;;;;12.45;10.10;;;;;;;12.73;100.00;101123.13;5054625;28;20502;-54
2022/10/14 07:17:13;;;;;;;12.80;10.30;;;;;;;12.74;100.00;101119.50;5058908;28;20036;-54
2022/10/14 07:19:38;;;;;;;12.38;10.48;;;;;;;12.75;100.00;101119.34;5049762;28;20035;-52
2022/10/14 07:22:04;;;;;;;12.07;10.23;;;;;;;12.77;100.00;101125.41;5050521;28;20429;-53
2022/10/14 07:24:29;;;;;;;13.35;10.90;;;;;;;12.80;100.00;101131.47;5051877;28;20033;-54
2022/10/14 07:26:54;;;;;;;12.43;10.40;;;;;;;12.81;100.00;101130.50;5048912;28;20025;-54
2022/10/14 07:29:19;;;;;;;15.65;10.60;;;;;;;12.83;100.00;101134.72;5051738;28;20442;-54
2022/10/14 07:31:45;;;;;;;14.43;9.98;;;;;;;12.84;100.00;101131.09;5049920;28;20028;-54
2022/10/14 07:34:10;;;;;;;11.90;10.13;;;;;;;12.86;100.00;101131.81;5052118;28;20474;-55
2022/10/14 07:36:36;;;;;;;12.05;10.10;;;;;;;12.89;100.00;101144.03;5052609;28;20036;-54
2022/10/14 07:39:02;;;;;;;12.55;9.82;;;;;;;12.90;100.00;101135.91;5049046;28;20025;-54
2022/10/14 07:41:27;;;;;;;13.10;10.07;;;;;;;12.92;100.00;101131.31;5050913;28;20032;-54
2022/10/14 07:44:01;;;;;;;15.27;10.80;;;;;;;12.93;100.00;101130.31;5050366;28;20020;-54
2022/10/14 07:46:33;;;;;;;13.38;10.45;;;;;;;12.94;100.00;101123.19;5052120;28;20032;-53
2022/10/14 07:49:02;;;;;;;13.52;11.13;;;;;;;12.96;100.00;101127.41;5051790;28;20045;-54
2022/10/14 07:51:28;;;;;;;11.60;10.05;;;;;;;12.98;100.00;101124.63;5049550;28;20033;-55
2022/10/14 07:53:56;;;;;;;11.40;10.23;;;;;;;13.00;100.00;101121.81;5051130;28;20021;-56
2022/10/14 07:56:21;;;;;;;12.85;10.20;;;;;;;13.00;100.00;101120.00;5050112;28;20029;-54
2022/10/14 07:58:47;;;;;;;11.25;9.70;;;;;;;13.04;100.00;101123.25;5051428;28;20116;-55
2022/10/14 08:01:14;;;;;;;11.10;9.93;;;;;;;13.06;100.00;101116.00;5039993;28;20033;-55
2022/10/14 08:03:41;;;;;;;11.55;9.70;;;;;;;13.08;100.00;101106.88;5048382;28;20398;-55
2022/10/14 08:06:06;;;;;;;11.95;10.25;;;;;;;13.13;100.00;101111.84;5051059;28;20033;-54
2022/10/14 08:08:32;;;;;;;14.05;9.98;;;;;;;13.16;100.00;101111.59;5051867;28;20032;-56
2022/10/14 08:11:00;;;;;;;12.10;9.95;;;;;;;13.18;100.00;101106.97;5052442;28;20044;-55
2022/10/14 08:13:28;;;;;;;12.68;10.05;;;;;;;13.21;100.00;101111.22;5052183;28;20051;-54
2022/10/14 08:15:53;;;;;;;15.50;10.25;;;;;;;13.22;100.00;101104.88;5042546;28;20078;-54
2022/10/14 08:18:18;;;;;;;14.15;9.43;;;;;;;13.27;100.00;101113.34;5052201;28;20029;-54
2022/10/14 08:20:43;;;;;;;13.65;10.57;;;;;;;13.29;100.00;101101.59;5047795;28;20072;-55
2022/10/14 08:23:10;;;;;;;11.48;10.18;;;;;;;13.30;100.00;101092.59;5051688;28;20462;-55
2022/10/14 08:25:35;;;;;;;11.20;9.93;;;;;;;13.33;100.00;101096.84;5052590;28;20037;-54
2022/10/14 08:28:01;;;;;;;14.15;11.00;;;;;;;13.37;100.00;101095.59;5052267;28;20027;-55
2022/10/14 08:30:26;;;;;;;10.90;9.55;;;;;;;13.39;100.00;101099.03;5052696;28;20029;-54
2022/10/14 08:32:51;;;;;;;10.95;9.48;;;;;;;13.43;100.00;101099.59;5048601;28;20082;-56
2022/10/14 08:35:17;;;;;;;12.95;10.32;;;;;;;13.46;100.00;101102.00;5050465;28;20379;-54
2022/10/14 08:37:42;;;;;;;11.77;9.68;;;;;;;13.50;100.00;101106.94;5052379;28;20021;-55
2022/10/14 08:40:14;;;;;;;13.05;9.07;;;;;;;13.54;100.00;101101.34;5046959;28;20037;-54
2022/10/14 08:42:47;;;;;;;10.15;9.15;;;;;;;13.57;100.00;101109.09;5048447;28;20029;-54
2022/10/14 08:45:34;;;;;;;13.00;9.10;;;;;;;13.61;100.00;101098.03;5043600;28;20029;-55
2022/10/14 08:48:09;;;;;;;12.25;8.98;;;;;;;13.62;100.00;101102.41;5052121;28;20040;-56
2022/10/14 08:50:40;;;;;;;10.38;9.02;;;;;;;13.65;100.00;101094.09;5046979;28;20041;-53
2022/10/14 08:53:11;;;;;;;11.18;10.00;;;;;;;13.69;100.00;101094.72;5052370;28;20135;-55
2022/10/14 08:55:47;;;;;;;10.40;9.40;;;;;;;13.73;100.00;101093.47;5050524;28;20128;-56
2022/10/14 08:58:23;;;;;;;12.45;8.65;;;;;;;13.75;100.00;101094.16;5047931;28;20402;-57
2022/10/14 09:00:51;;;;;;;11.60;9.40;;;;;;;13.77;100.00;101099.38;5049493;28;20514;-54
2022/10/14 09:03:22;;;;;;;10.07;9.00;;;;;;;13.79;100.00;101100.09;5051557;28;20386;-55
2022/10/14 09:06:00;;;;;;;10.90;9.20;;;;;;;13.82;100.00;101100.69;5044361;28;20036;-56
2022/10/14 09:08:41;;;;;;;12.80;9.20;;;;;;;13.86;100.00;101095.94;5054847;28;20029;-55
2022/10/14 09:11:12;;;;;;;12.50;9.52;;;;;;;13.88;100.00;101084.13;5045046;28;20381;-56
2022/10/14 09:13:40;;;;;;;10.15;8.43;;;;;;;13.90;100.00;101089.31;5051783;28;20032;-56
2022/10/14 09:16:30;;;;;;;11.38;8.55;;;;;;;13.94;100.00;101090.78;5048617;28;20060;-56
2022/10/14 09:18:59;;;;;;;9.82;8.82;;;;;;;13.98;100.00;101092.19;5047122;28;20124;-57
2022/10/14 09:21:36;;;;;;;10.30;8.38;;;;;;;14.00;100.00;101084.03;5046155;28;20443;-55
2022/10/14 09:24:13;;;;;;;11.82;9.07;;;;;;;14.02;100.00;101076.72;5053935;28;20064;-56
2022/10/14 09:26:40;;;;;;;9.40;8.43;;;;;;;14.03;100.00;101087.28;5054344;28;20039;-56
2022/10/14 09:29:38;;;;;;;9.20;8.15;;;;;;;14.08;100.00;101076.19;5048138;28;20037;-56
2022/10/14 09:32:11;;;;;;;9.07;8.07;;;;;;;14.06;100.00;101076.34;5053364;28;20041;-55
2022/10/14 09:34:44;;;;;;;10.23;8.40;;;;;;;14.07;100.00;101072.69;5053858;28;20044;-55
2022/10/14 09:37:36;;;;;;;8.85;7.70;;;;;;;14.07;100.00;101075.38;5046523;28;20040;-56
2022/10/14 09:40:15;;;;;;;13.07;8.35;;;;;;;14.11;100.00;101073.25;5053830;28;20094;-54
2022/10/14 09:43:04;;;;;;;9.95;7.63;;;;;;;14.14;100.00;101074.81;5046525;28;20032;-54
2022/10/14 09:45:44;;;;;;;;;;;;;;;14.19;100.00;101070.75;5049564;28;20041;-56
2022/10/14 09:48:15;;;;;;;8.70;7.38;;;;;;;14.14;100.00;101069.47;5048541;28;20043;-56
2022/10/14 09:50:47;;;;;;;7.82;7.13;;;;;;;14.14;100.00;101075.66;5049869;28;20040;-55
2022/10/14 09:53:17;;;;;;;9.98;7.40;;;;;;;14.16;100.00;101072.88;5049495;28;20033;-55
2022/10/14 09:55:48;;;;;;;9.23;8.23;;;;;;;14.16;100.00;101071.03;5052345;28;20071;-54
2022/10/14 09:58:17;;;;;;;12.52;8.20;;;;;;;14.19;100.00;101065.41;5053097;28;20174;-54
2022/10/14 10:00:45;;;;;;;8.48;7.68;;;;;;;14.19;100.00;101051.22;5052534;28;20159;-56
2022/10/14 10:03:38;;;;;;;9.25;7.75;;;;;;;14.25;100.00;101054.19;5053368;28;20036;-56
2022/10/14 10:06:09;;;;;;;8.88;7.97;;;;;;;14.26;100.00;101060.38;5052471;28;20060;-56
2022/10/14 10:08:38;;;;;;;9.15;7.80;;;;;;;14.25;100.00;101056.00;5050108;28;20052;-51
2022/10/14 10:11:08;;;;;;;9.10;8.30;;;;;;;14.26;100.00;101057.72;5045148;28;20048;-55
2022/10/14 10:13:43;;;;;;;10.15;8.73;;;;;;;14.27;100.00;101055.88;5041289;28;20037;-55
2022/10/14 10:16:19;;;;;;;10.43;8.75;;;;;;;14.31;100.00;101054.63;5053349;28;20056;-54
2022/10/14 10:18:45;;;;;;;9.93;8.93;;;;;;;14.30;100.00;101051.09;5044171;28;20029;-54
2022/10/14 10:21:23;;;;;;;10.77;8.77;;;;;;;14.32;100.00;101043.81;5042646;28;20388;-54
2022/10/14 10:24:22;;;;;;;11.27;9.75;;;;;;;14.35;100.00;101048.84;5054811;28;20083;-55
2022/10/14 10:26:49;;;;;;;9.27;8.40;;;;;;;14.33;100.00;101040.13;5054572;28;20067;-54
2022/10/14 10:29:33;;;;;;;10.18;9.13;;;;;;;14.36;100.00;101036.38;5053788;28;20048;-53
2022/10/14 10:32:23;;;;;;;10.35;9.15;;;;;;;14.36;100.00;101031.00;5053897;28;20044;-53
2022/10/14 10:35:24;;;;;;;10.68;9.55;;;;;;;14.39;100.00;101036.09;5053121;28;20530;-53
2022/10/14 10:38:22;;;;;;;10.38;8.95;;;;;;;14.43;100.00;101037.50;5050988;28;20116;-55
2022/10/14 10:41:12;;;;;;;10.63;9.45;;;;;;;14.47;100.00;101038.91;5053907;28;20080;-55
2022/10/14 10:43:58;;;;;;;10.07;9.07;;;;;;;14.50;100.00;101035.94;5047587;28;20033;-54
2022/10/14 10:46:31;;;;;;;9.65;8.55;;;;;;;14.52;100.00;101033.13;5053761;28;20037;-55
2022/10/14 10:49:04;;;;;;;9.75;8.77;;;;;;;14.53;100.00;101030.31;5052931;28;20048;-52
2022/10/14 10:51:38;;;;;;;9.15;8.23;;;;;;;14.55;100.00;101024.84;5053923;28;20056;-52
2022/10/14 10:54:12;;;;;;;9.65;8.60;;;;;;;14.56;100.00;101024.72;5053206;28;20467;-51
2022/10/14 10:56:48;;;;;;;10.73;8.77;;;;;;;14.55;100.00;101019.50;5043255;28;20037;-54
2022/10/14 10:59:32;;;;;;;8.30;7.57;;;;;;;14.63;100.00;101027.69;5051983;28;20120;-52
2022/10/14 11:02:12;;;;;;;8.77;7.97;;;;;;;14.65;100.00;101023.06;5053239;28;20045;-53
2022/10/14 11:04:48;;;;;;;9.27;8.40;;;;;;;14.67;100.00;101018.44;5047869;28;20029;-52
2022/10/14 11:13:58;;;;;;;8.55;7.75;;;;;;;14.69;100.00;101005.75;5040762;28;20039;-54
2022/10/14 11:16:28;;;;;;;8.88;7.93;;;;;;;14.72;100.00;101009.97;5043241;28;20045;-54
2022/10/14 11:19:50;;;;;;;7.90;7.28;;;;;;;14.75;100.00;101001.66;5046068;28;20021;-51
2022/10/14 11:22:45;;;;;;;8.13;7.38;;;;;;;14.72;100.00;101000.13;5018514;28;20060;-53